Estación de Lolol

Ultimos registro cada 15 minutos 87
Estación Fecha / Hora Temperatura Humedad Lluvia Velocidad Dirección Radiación Presion
87 Lolol 04-09-2026 21:45 12,6 59 0 0,4 42 0 1020,9
86 Lolol 04-09-2026 21:30 12,6 59 0 0,4 43 0 1020,9
85 Lolol 04-09-2026 21:15 12,7 57 0 0,4 78 0 1020,9
84 Lolol 04-09-2026 21:00 12,8 57 0 1,3 39 0 1020,8
83 Lolol 04-09-2026 20:45 12,9 54 0 0 53 0 1020,6
82 Lolol 04-09-2026 20:30 13,3 52 0 0,4 344 0 1020,7
81 Lolol 04-09-2026 20:15 13,4 53 0 1,8 111 0 1020,5
80 Lolol 04-09-2026 20:00 13,6 52 0 1,8 89 0 1020,5
79 Lolol 04-09-2026 19:45 12,9 53 0 0,9 88 0 1020,5
78 Lolol 04-09-2026 19:30 12,9 59 0 0 126 0 1020,1
77 Lolol 04-09-2026 19:15 13,4 56 0 0,4 138 0 1020,1
76 Lolol 04-09-2026 19:00 14,4 54 0 0,4 143 0 1019,8
75 Lolol 04-09-2026 18:45 15,4 50 0 0 330 0 1019,8
74 Lolol 04-09-2026 18:30 16,2 48 0 0 300 5 1019,6
73 Lolol 04-09-2026 18:15 17,1 44 0 0,4 297 12 1019,4
72 Lolol 04-09-2026 18:00 18,3 41 0 0 304 18 1019,1
71 Lolol 04-09-2026 17:45 19,7 37 0 0,9 259 81 1018,9
70 Lolol 04-09-2026 17:30 19,9 37 0 0 297 137 1018,9
69 Lolol 04-09-2026 17:15 19,6 35 0 0 279 197 1018,8
68 Lolol 04-09-2026 17:00 19,7 33 0 0,9 176 253 1018,9
67 Lolol 04-09-2026 16:45 19,7 35 0 0,9 124 278 1019
66 Lolol 04-09-2026 16:30 19,3 36 0 0,9 126 345 1018,9
65 Lolol 04-09-2026 16:15 19,6 37 0 1,8 147 388 1018,9
64 Lolol 04-09-2026 16:00 20 37 0 1,8 160 432 1018,6
63 Lolol 04-09-2026 15:45 19,9 37 0 3,1 166 473 1018,6
62 Lolol 04-09-2026 15:30 19,9 38 0 0,9 230 512 1018,6
61 Lolol 04-09-2026 15:15 20,1 36 0 2,2 160 548 1018,7
60 Lolol 04-09-2026 15:00 19,9 37 0 1,3 176 582 1018,6
59 Lolol 04-09-2026 14:30 19,9 38 0 1,8 270 629 1018,7
58 Lolol 04-09-2026 14:15 19,8 38 0 1,8 166 656 1018,9
57 Lolol 04-09-2026 14:00 19,5 37 0 2,7 155 677 1019,1
56 Lolol 04-09-2026 13:45 19,4 37 0 2,7 184 696 1019,1
55 Lolol 04-09-2026 13:30 19,7 39 0 1,8 114 707 1019,5
54 Lolol 04-09-2026 13:15 19,6 38 0 0,9 219 717 1019,8
53 Lolol 04-09-2026 13:00 19,2 45 0 0 283 724 1020
52 Lolol 04-09-2026 12:45 18,4 47 0 0 21 731 1020,3
51 Lolol 04-09-2026 12:30 18 49 0 0 337 728 1020,5
50 Lolol 04-09-2026 12:15 17,2 53 0 0,4 253 724 1020,7
49 Lolol 04-09-2026 12:00 16,4 56 0 0,4 281 714 1020,8
48 Lolol 04-09-2026 11:45 16,2 59 0 1,3 253 701 1021
47 Lolol 04-09-2026 11:30 15,7 60 0 0,9 171 686 1021,1
46 Lolol 04-09-2026 11:15 14,9 64 0 0 239 666 1021,5
45 Lolol 04-09-2026 11:00 14 68 0 0 280 638 1021,5
44 Lolol 04-09-2026 10:45 13,3 70 0 0,4 61 613 1021,7
43 Lolol 04-09-2026 10:30 12,8 73 0 0,9 259 584 1022
42 Lolol 04-09-2026 10:15 11,9 74 0 0,4 136 548 1022
41 Lolol 04-09-2026 10:00 11,6 77 0 1,8 152 513 1022,1
40 Lolol 04-09-2026 09:45 10,9 79 0 0,4 171 322 1022,3
39 Lolol 04-09-2026 09:30 10,2 81 0 0,9 144 438 1022,4
38 Lolol 04-09-2026 09:15 9,3 83 0 0,4 176 392 1022,5
37 Lolol 04-09-2026 09:00 8,4 86 0 0 253 350 1022,5
36 Lolol 04-09-2026 08:45 7,6 88 0 0 132 288 1022,5
35 Lolol 04-09-2026 08:30 7,1 91 0 0 224 239 1022,4
34 Lolol 04-09-2026 08:15 6,4 93 0 0 198 199 1022,2
33 Lolol 04-09-2026 08:00 5,5 95 0 2,2 166 149 1022
32 Lolol 04-09-2026 07:45 4,6 95 0 0 240 65 1021,8
31 Lolol 04-09-2026 07:30 3,8 93 0 0 320 23 1022
30 Lolol 04-09-2026 07:15 4,1 93 0 0 247 11 1021,9
29 Lolol 04-09-2026 07:00 4 92 0 0 121 5 1021,8
28 Lolol 04-09-2026 06:45 4,5 93 0 0 122 0 1021,9
27 Lolol 04-09-2026 06:30 4,4 94 0 0,4 107 0 1021,8
26 Lolol 04-09-2026 06:15 4 92 0 0 192 0 1021,8
25 Lolol 04-09-2026 06:00 4,2 92 0 0 228 0 1021,8
24 Lolol 04-09-2026 05:45 4,1 92 0 0 171 0 1021,6
23 Lolol 04-09-2026 05:30 4,5 91 0 0 171 0 1021,4
22 Lolol 04-09-2026 05:15 4,8 91 0 0 149 0 1021,5
21 Lolol 04-09-2026 05:00 5 90 0 0 149 0 1021,6
20 Lolol 04-09-2026 04:45 5,5 91 0,2 0 149 0 1021,5
19 Lolol 04-09-2026 04:30 5,6 91 0 0 149 0 1021,4
18 Lolol 04-09-2026 04:15 5,5 90 0 0 149 0 1021,5
17 Lolol 04-09-2026 04:00 5,9 91 0 0 149 0 1021,6
16 Lolol 04-09-2026 03:45 5,8 91 0 0 147 0 1021,6
15 Lolol 04-09-2026 03:30 5,9 91 0 0 159 0 1021,7
14 Lolol 04-09-2026 03:15 5,9 91 0 0 166 0 1021,8
13 Lolol 04-09-2026 03:00 6,1 90 0 0 166 0 1021,7
12 Lolol 04-09-2026 02:45 5,9 90 0 0 166 0 1021,8
11 Lolol 04-09-2026 02:30 6,3 90 0 0 166 0 1022
10 Lolol 04-09-2026 02:15 6,4 89 0 0 166 0 1022
9 Lolol 04-09-2026 02:00 6,8 89 0 0 166 0 1022,1
8 Lolol 04-09-2026 01:45 6,9 89 0 0 111 0 1022,1
7 Lolol 04-09-2026 01:30 6,8 89 0 0,9 109 0 1022,3
6 Lolol 04-09-2026 01:15 7 88 0 0 161 0 1022,3
5 Lolol 04-09-2026 01:00 7,2 88 0 0 161 0 1022,4
4 Lolol 04-09-2026 00:45 7,6 87 0 0 161 0 1022,5
3 Lolol 04-09-2026 00:30 7,8 87 0 0 205 0 1022,6
2 Lolol 04-09-2026 00:15 7,8 88 0 0 205 0 1022,7
1 Lolol 04-09-2026 00:00 7,8 87 0 0 205 0 1022,6